Time;durP1;ratioP1;P1;durP2;ratioP2;P2;SDS_P1;SDS_P2;PMS_P1;PMS_P2;Temp;Humidity;BMP_temperature;BMP_pressure;BME280_temperature;BME280_humidity;BME280_pressure;Samples;Min_cycle;Max_cycle;Signal;HPM_P1;HPM_P2
2022/07/28 00:00:12;;;;;;;0.20;0.20;;;13.10;99.90;;;;;;5057681;28;20094;-83
2022/07/28 00:02:38;;;;;;;0.10;0.10;;;13.10;99.90;;;;;;5064559;28;20127;-82
2022/07/28 00:05:05;;;;;;;0.20;0.20;;;13.00;99.90;;;;;;5074982;28;20130;-83
2022/07/28 00:07:30;;;;;;;0.10;0.10;;;13.00;99.90;;;;;;5081555;28;20378;-83
2022/07/28 00:09:56;;;;;;;0.20;0.20;;;13.00;99.90;;;;;;5058554;28;20047;-82
2022/07/28 00:12:22;;;;;;;0.10;0.10;;;13.00;99.90;;;;;;5072998;28;20416;-84
2022/07/28 00:14:47;;;;;;;0.20;0.20;;;13.00;99.90;;;;;;5073982;28;20052;-83
2022/07/28 00:17:16;;;;;;;0.20;0.20;;;13.00;99.90;;;;;;5068379;28;20390;-83
2022/07/28 00:19:41;;;;;;;0.10;0.10;;;13.20;99.90;;;;;;5070735;28;20047;-83
2022/07/28 00:22:07;;;;;;;0.10;0.10;;;13.00;99.90;;;;;;5068293;28;20036;-83
2022/07/28 00:24:33;;;;;;;0.20;0.20;;;12.90;99.90;;;;;;5068005;28;20125;-84
2022/07/28 00:26:59;;;;;;;0.25;0.25;;;12.80;99.90;;;;;;5074392;28;20048;-84
2022/07/28 00:29:27;;;;;;;0.10;0.10;;;12.90;99.90;;;;;;5063143;28;20113;-82
2022/07/28 00:31:53;;;;;;;0.10;0.10;;;12.80;99.90;;;;;;5083211;28;20037;-82
2022/07/28 00:34:18;;;;;;;0.15;0.15;;;12.80;99.90;;;;;;5076603;28;20157;-83
2022/07/28 00:36:44;;;;;;;0.10;0.10;;;12.80;99.90;;;;;;5072521;28;20408;-83
2022/07/28 00:39:13;;;;;;;0.20;0.20;;;12.80;99.90;;;;;;5062196;28;20037;-83
2022/07/28 00:41:38;;;;;;;0.15;0.15;;;12.70;99.90;;;;;;5058925;28;20416;-83
2022/07/28 00:44:06;;;;;;;0.10;0.10;;;12.70;99.90;;;;;;5070281;28;20048;-84
2022/07/28 00:46:32;;;;;;;0.20;0.20;;;12.80;99.90;;;;;;5077740;28;20072;-83
2022/07/28 00:49:00;;;;;;;0.10;0.10;;;12.70;99.90;;;;;;5074318;28;20132;-83
2022/07/28 00:51:27;;;;;;;0.20;0.20;;;12.70;99.90;;;;;;5061780;28;20253;-83
2022/07/28 00:53:53;;;;;;;0.20;0.20;;;12.80;99.90;;;;;;5078161;28;20055;-83
2022/07/28 00:56:20;;;;;;;0.10;0.10;;;12.70;99.90;;;;;;5076322;28;20036;-83
2022/07/28 00:58:46;;;;;;;0.20;0.20;;;12.70;99.90;;;;;;5070955;28;20052;-83
2022/07/28 01:01:16;;;;;;;0.20;0.20;;;12.70;99.90;;;;;;5071388;28;20045;-83
2022/07/28 01:03:45;;;;;;;0.20;0.20;;;12.70;99.90;;;;;;5060125;28;20041;-83
2022/07/28 01:06:54;;;;;;;0.20;0.20;;;12.60;99.90;;;;;;5057328;28;20055;-83
2022/07/28 01:09:44;;;;;;;0.10;0.10;;;12.60;99.90;;;;;;5011179;28;20529;-84
2022/07/28 01:12:27;;;;;;;0.20;0.20;;;12.60;99.90;;;;;;5069519;28;20041;-84
2022/07/28 01:15:08;;;;;;;0.20;0.20;;;12.60;99.90;;;;;;5070938;28;20495;-84
2022/07/28 01:18:06;;;;;;;0.20;0.20;;;12.60;99.90;;;;;;5071784;28;20387;-83
2022/07/28 01:20:48;;;;;;;0.20;0.20;;;12.60;99.90;;;;;;5071996;28;20451;-83
2022/07/28 01:23:32;;;;;;;0.15;0.15;;;12.60;99.90;;;;;;5075828;28;20391;-84
2022/07/28 01:26:16;;;;;;;0.20;0.20;;;12.60;99.90;;;;;;5099428;28;20040;-84
2022/07/28 01:28:51;;;;;;;0.20;0.20;;;12.60;99.90;;;;;;5061803;28;20719;-84
2022/07/28 01:31:23;;;;;;;0.20;0.20;;;12.60;99.90;;;;;;5092767;28;20083;-83
2022/07/28 01:34:01;;;;;;;0.20;0.20;;;12.60;99.90;;;;;;5086492;28;20056;-84
2022/07/28 01:36:32;;;;;;;0.20;0.20;;;12.60;99.90;;;;;;5072359;28;20052;-83
2022/07/28 01:38:59;;;;;;;0.10;0.10;;;12.60;99.90;;;;;;5066134;28;20037;-84
2022/07/28 01:41:28;;;;;;;0.10;0.10;;;12.50;99.90;;;;;;5064633;28;20044;-84
2022/07/28 01:44:02;;;;;;;0.20;0.20;;;12.60;99.90;;;;;;5064431;28;20462;-84
2022/07/28 01:46:29;;;;;;;0.17;0.17;;;12.60;99.90;;;;;;5071417;28;20043;-84
2022/07/28 01:48:57;;;;;;;0.20;0.20;;;12.50;99.90;;;;;;5068170;28;20032;-84
2022/07/28 01:51:25;;;;;;;0.20;0.20;;;12.50;99.90;;;;;;5065296;28;20067;-84
2022/07/28 01:53:54;;;;;;;0.20;0.20;;;12.60;99.90;;;;;;5056918;28;20041;-84
2022/07/28 01:56:21;;;;;;;0.10;0.10;;;12.60;99.90;;;;;;5085666;28;20044;-84
2022/07/28 01:58:51;;;;;;;0.10;0.10;;;13.00;99.90;;;;;;5061003;28;20056;-83
2022/07/28 02:01:19;;;;;;;0.20;0.20;;;12.50;99.90;;;;;;5068216;28;20056;-83
2022/07/28 02:03:46;;;;;;;0.20;0.20;;;12.50;99.90;;;;;;5054228;28;20077;-83
2022/07/28 02:06:14;;;;;;;0.20;0.20;;;12.50;99.90;;;;;;5058578;28;20048;-82
2022/07/28 02:08:40;;;;;;;0.20;0.20;;;12.50;99.90;;;;;;5067798;28;20477;-83
2022/07/28 02:13:53;;;;;;;0.10;0.10;;;12.50;99.90;;;;;;5062033;28;20041;-83
2022/07/28 02:16:23;;;;;;;0.15;0.15;;;12.50;99.90;;;;;;5068639;28;20407;-83
2022/07/28 02:18:52;;;;;;;0.20;0.20;;;12.50;99.90;;;;;;5069520;28;20135;-83
2022/07/28 02:21:20;;;;;;;0.20;0.20;;;12.40;99.90;;;;;;5072259;28;20128;-83
2022/07/28 02:23:47;;;;;;;0.10;0.10;;;12.40;99.90;;;;;;5065099;28;20076;-83
2022/07/28 02:26:15;;;;;;;0.10;0.10;;;12.50;99.90;;;;;;5065378;28;20488;-83
2022/07/28 02:28:42;;;;;;;0.10;0.10;;;12.40;99.90;;;;;;5073248;28;20051;-84
2022/07/28 02:31:30;;;;;;;0.10;0.10;;;12.40;99.90;;;;;;5079218;28;20521;-83
2022/07/28 02:33:59;;;;;;;0.10;0.10;;;12.40;99.90;;;;;;5081842;28;20052;-84
2022/07/28 02:36:29;;;;;;;0.17;0.17;;;12.40;99.90;;;;;;5075225;28;20339;-83
2022/07/28 02:38:59;;;;;;;0.17;0.17;;;12.40;99.90;;;;;;5080908;28;20053;-83
2022/07/28 02:41:31;;;;;;;0.20;0.20;;;12.40;99.90;;;;;;5088439;28;20044;-83
2022/07/28 02:44:10;;;;;;;0.22;0.22;;;12.40;99.90;;;;;;5066231;28;20373;-83
2022/07/28 02:46:45;;;;;;;0.20;0.20;;;12.40;99.90;;;;;;5081634;28;20075;-83
2022/07/28 02:49:32;;;;;;;0.10;0.10;;;12.40;99.90;;;;;;5078651;28;20040;-85
2022/07/28 02:52:00;;;;;;;0.20;0.20;;;12.40;99.90;;;;;;5068295;28;20040;-81
2022/07/28 02:54:29;;;;;;;0.10;0.10;;;12.60;99.90;;;;;;5070063;28;20093;-83
2022/07/28 02:56:57;;;;;;;0.20;0.20;;;12.50;99.90;;;;;;5076797;28;20574;-83
2022/07/28 02:59:24;;;;;;;0.10;0.10;;;12.50;99.90;;;;;;5078700;28;20083;-83
2022/07/28 03:01:51;;;;;;;0.20;0.20;;;12.60;99.90;;;;;;5073612;28;20060;-84
2022/07/28 03:04:55;;;;;;;0.20;0.20;;;12.60;99.90;;;;;;5084607;28;20426;-83
2022/07/28 03:07:04;;;;;;;0.10;0.10;;;12.60;99.90;;;;;;5071999;28;20044;-83
2022/07/28 03:09:36;;;;;;;0.10;0.10;;;12.60;99.90;;;;;;5081058;28;20071;-83
2022/07/28 03:12:02;;;;;;;0.10;0.10;;;12.70;99.90;;;;;;5071756;28;20568;-83
2022/07/28 03:14:28;;;;;;;0.20;0.20;;;12.80;99.90;;;;;;5068705;28;20189;-83
2022/07/28 03:16:53;;;;;;;0.20;0.20;;;12.80;99.90;;;;;;5072011;28;20087;-82
2022/07/28 03:19:19;;;;;;;0.20;0.20;;;12.80;99.90;;;;;;5070427;28;20071;-83
2022/07/28 03:21:48;;;;;;;0.20;0.20;;;12.90;99.90;;;;;;5078008;28;20385;-83
2022/07/28 03:24:16;;;;;;;0.15;0.15;;;12.90;99.90;;;;;;5069236;28;20040;-83
2022/07/28 03:26:49;;;;;;;0.10;0.10;;;12.90;99.90;;;;;;5064620;28;20086;-84
2022/07/28 03:29:16;;;;;;;0.10;0.10;;;12.90;99.90;;;;;;5080014;28;20052;-84
2022/07/28 03:31:48;;;;;;;0.10;0.10;;;13.00;99.90;;;;;;5087064;28;20056;-83
2022/07/28 03:34:14;;;;;;;0.10;0.10;;;13.00;99.90;;;;;;5085308;28;20051;-84
2022/07/28 03:36:44;;;;;;;0.17;0.17;;;13.10;99.90;;;;;;5065552;28;20085;-83
2022/07/28 03:39:10;;;;;;;0.20;0.20;;;13.10;99.90;;;;;;5077264;28;20519;-84
2022/07/28 03:41:38;;;;;;;0.20;0.20;;;13.10;99.90;;;;;;5069426;28;20048;-84
2022/07/28 03:44:04;;;;;;;0.10;0.10;;;13.10;99.90;;;;;;5076012;28;20051;-83
2022/07/28 03:46:31;;;;;;;0.15;0.15;;;13.20;99.90;;;;;;5076781;28;20476;-84
2022/07/28 03:48:56;;;;;;;0.20;0.20;;;13.20;99.90;;;;;;5072573;28;20043;-84
2022/07/28 03:51:24;;;;;;;0.20;0.20;;;13.20;99.90;;;;;;5081908;28;20032;-83
2022/07/28 03:53:50;;;;;;;0.20;0.20;;;13.20;99.90;;;;;;5086735;28;20043;-83
2022/07/28 03:56:15;;;;;;;0.20;0.20;;;13.30;99.90;;;;;;5073366;28;20044;-83
2022/07/28 03:58:41;;;;;;;0.20;0.20;;;13.30;99.90;;;;;;5074690;28;20562;-83
2022/07/28 04:01:09;;;;;;;0.20;0.20;;;13.30;99.90;;;;;;5071627;28;20052;-82
2022/07/28 04:03:35;;;;;;;0.20;0.20;;;13.30;99.90;;;;;;5083421;28;20040;-83
2022/07/28 04:06:01;;;;;;;0.20;0.20;;;13.30;99.90;;;;;;5073768;28;20413;-83
2022/07/28 04:08:26;;;;;;;0.20;0.20;;;13.30;99.90;;;;;;5074818;28;20051;-82
2022/07/28 04:10:52;;;;;;;0.20;0.20;;;13.30;99.90;;;;;;5051731;28;20040;-83
2022/07/28 04:13:19;;;;;;;0.10;0.10;;;13.30;99.90;;;;;;5065049;28;20044;-82
2022/07/28 04:15:45;;;;;;;0.20;0.20;;;13.30;99.90;;;;;;5086553;28;20056;-82
2022/07/28 04:18:10;;;;;;;0.17;0.17;;;13.40;99.90;;;;;;5065015;28;20048;-84
2022/07/28 04:20:36;;;;;;;0.20;0.20;;;13.40;99.90;;;;;;5052022;28;20049;-84
2022/07/28 04:23:02;;;;;;;0.20;0.20;;;13.30;99.90;;;;;;5072543;28;20591;-84
2022/07/28 04:25:27;;;;;;;0.20;0.20;;;13.80;99.90;;;;;;5072135;28;20041;-84
2022/07/28 04:27:54;;;;;;;0.20;0.20;;;13.40;99.90;;;;;;5066474;28;20373;-84
2022/07/28 04:30:23;;;;;;;0.20;0.20;;;13.30;99.90;;;;;;5073162;28;20052;-84
2022/07/28 04:32:52;;;;;;;0.20;0.20;;;13.30;99.90;;;;;;5070468;28;20044;-83
2022/07/28 04:35:18;;;;;;;0.13;0.13;;;13.30;99.90;;;;;;5070802;28;20035;-83
2022/07/28 04:37:45;;;;;;;0.20;0.20;;;13.30;99.90;;;;;;5063277;28;20048;-83
2022/07/28 04:40:12;;;;;;;0.10;0.10;;;13.30;99.90;;;;;;5088629;28;20123;-85
2022/07/28 04:42:38;;;;;;;0.20;0.20;;;13.30;99.90;;;;;;5090735;28;20044;-82
2022/07/28 04:45:06;;;;;;;0.20;0.20;;;13.30;99.90;;;;;;5081004;28;20469;-83
2022/07/28 04:47:31;;;;;;;0.20;0.20;;;13.30;99.90;;;;;;5073045;28;20488;-84
2022/07/28 04:49:57;;;;;;;0.10;0.10;;;13.30;99.90;;;;;;5078324;28;20070;-83
2022/07/28 04:52:24;;;;;;;0.20;0.20;;;13.30;99.90;;;;;;5076828;28;20044;-83
2022/07/28 04:54:50;;;;;;;0.20;0.20;;;13.30;99.90;;;;;;5074680;28;20119;-83
2022/07/28 04:57:15;;;;;;;0.10;0.10;;;13.30;99.90;;;;;;5070256;28;20127;-83
2022/07/28 04:59:41;;;;;;;0.10;0.10;;;13.40;99.90;;;;;;5054469;28;20063;-84
2022/07/28 05:02:07;;;;;;;0.20;0.20;;;13.30;99.90;;;;;;5068171;28;20552;-84
2022/07/28 05:04:33;;;;;;;0.15;0.15;;;13.40;99.90;;;;;;5084305;28;20040;-84
2022/07/28 05:06:59;;;;;;;0.10;0.10;;;13.40;99.90;;;;;;5083279;28;20040;-83
2022/07/28 05:09:25;;;;;;;0.10;0.10;;;13.40;99.90;;;;;;5063070;28;20131;-84
2022/07/28 05:11:50;;;;;;;0.20;0.20;;;13.40;99.90;;;;;;5080573;28;20048;-84
2022/07/28 05:14:18;;;;;;;0.15;0.15;;;13.40;99.90;;;;;;5088830;28;20480;-84
2022/07/28 05:16:44;;;;;;;0.10;0.10;;;13.40;99.90;;;;;;5065273;28;20052;-83
2022/07/28 05:19:10;;;;;;;0.20;0.20;;;13.50;99.90;;;;;;5055994;28;20041;-83
2022/07/28 05:21:36;;;;;;;0.20;0.20;;;13.60;99.90;;;;;;5066463;28;20527;-83
2022/07/28 05:24:01;;;;;;;0.20;0.20;;;13.60;99.90;;;;;;5062849;28;20121;-84
2022/07/28 05:26:31;;;;;;;0.15;0.15;;;13.60;99.90;;;;;;5054975;28;20524;-84
2022/07/28 05:28:57;;;;;;;0.10;0.10;;;13.60;99.90;;;;;;5072164;28;20048;-84
2022/07/28 05:31:22;;;;;;;0.10;0.10;;;13.60;99.90;;;;;;5060744;28;20704;-84
2022/07/28 05:33:48;;;;;;;0.20;0.20;;;13.70;99.90;;;;;;5055719;28;20067;-84
2022/07/28 05:36:14;;;;;;;0.20;0.20;;;13.80;99.90;;;;;;5064310;28;20075;-84
2022/07/28 05:38:39;;;;;;;0.20;0.20;;;13.90;99.90;;;;;;5065166;28;20048;-84
2022/07/28 05:41:05;;;;;;;0.10;0.10;;;13.90;99.90;;;;;;5068491;28;20055;-84
2022/07/28 05:43:31;;;;;;;0.20;0.20;;;14.00;99.90;;;;;;5054963;28;20052;-83
2022/07/28 05:45:57;;;;;;;0.13;0.13;;;14.00;99.90;;;;;;5054147;28;20049;-83
2022/07/28 05:48:23;;;;;;;0.10;0.10;;;14.10;99.90;;;;;;5082601;28;20507;-83
2022/07/28 05:50:50;;;;;;;0.20;0.20;;;14.10;99.90;;;;;;5062895;28;20417;-83
2022/07/28 05:53:16;;;;;;;0.10;0.10;;;14.20;99.90;;;;;;5048772;28;20052;-84
2022/07/28 05:55:45;;;;;;;0.10;0.10;;;14.30;99.90;;;;;;5079501;28;20048;-83
2022/07/28 05:58:11;;;;;;;0.20;0.20;;;14.30;99.90;;;;;;5086549;28;20061;-82
2022/07/28 06:00:37;;;;;;;0.20;0.20;;;14.20;99.90;;;;;;5060205;28;20178;-83
2022/07/28 06:03:03;;;;;;;0.20;0.20;;;14.40;99.90;;;;;;5065770;28;20505;-82
2022/07/28 06:05:32;;;;;;;0.15;0.15;;;14.50;99.90;;;;;;5072072;28;20040;-82
2022/07/28 06:07:58;;;;;;;0.10;0.10;;;14.60;99.90;;;;;;5070481;28;20179;-82
2022/07/28 06:10:25;;;;;;;0.20;0.20;;;14.60;99.90;;;;;;5062456;28;20041;-82
2022/07/28 06:12:54;;;;;;;0.10;0.10;;;14.70;99.90;;;;;;5052379;28;20047;-82
2022/07/28 06:15:26;;;;;;;0.20;0.20;;;14.70;99.90;;;;;;5051575;28;20044;-82
2022/07/28 06:17:52;;;;;;;;;;;14.80;99.90;;;;;;5072932;28;20104;-84
2022/07/28 06:20:19;;;;;;;0.20;0.20;;;14.80;99.90;;;;;;5075399;28;19927;-83
2022/07/28 06:22:49;;;;;;;0.20;0.20;;;14.90;99.90;;;;;;5065365;28;20495;-83
2022/07/28 06:25:20;;;;;;;0.20;0.20;;;15.00;99.90;;;;;;5072072;28;20045;-83
2022/07/28 06:27:51;;;;;;;0.20;0.20;;;15.00;99.90;;;;;;5062567;28;20040;-84
2022/07/28 06:30:18;;;;;;;0.20;0.20;;;15.00;99.90;;;;;;5072424;28;20055;-83
2022/07/28 06:32:45;;;;;;;0.20;0.20;;;15.00;99.90;;;;;;5075251;28;20047;-84
2022/07/28 06:35:15;;;;;;;0.10;0.10;;;15.00;99.90;;;;;;5073116;28;20538;-84
2022/07/28 06:37:41;;;;;;;0.13;0.13;;;15.10;99.90;;;;;;5078936;28;20097;-86
2022/07/28 06:40:08;;;;;;;0.20;0.20;;;15.10;99.90;;;;;;5086159;28;20121;-85
2022/07/28 06:42:34;;;;;;;0.20;0.20;;;15.10;99.90;;;;;;5091691;28;20101;-86
2022/07/28 06:44:59;;;;;;;0.10;0.10;;;15.10;99.90;;;;;;5063161;28;20056;-86
2022/07/28 06:47:26;;;;;;;0.10;0.10;;;15.20;99.90;;;;;;5070944;28;20121;-87
2022/07/28 06:49:51;;;;;;;0.20;0.20;;;15.20;99.90;;;;;;5069371;28;20079;-85
2022/07/28 06:52:19;;;;;;;0.20;0.20;;;15.10;99.90;;;;;;5058568;28;20068;-84
2022/07/28 06:54:45;;;;;;;0.20;0.20;;;15.20;99.90;;;;;;5052207;28;20044;-82
2022/07/28 06:57:12;;;;;;;0.10;0.10;;;15.20;99.90;;;;;;5062968;28;20038;-85
2022/07/28 06:59:38;;;;;;;0.10;0.10;;;15.20;99.90;;;;;;5062806;28;20059;-86
2022/07/28 07:02:05;;;;;;;0.20;0.20;;;15.20;99.90;;;;;;5072229;28;20076;-84
2022/07/28 07:04:30;;;;;;;0.20;0.20;;;15.20;99.90;;;;;;5060037;28;20385;-86
2022/07/28 07:06:56;;;;;;;0.20;0.20;;;15.20;99.90;;;;;;5079441;28;20483;-88
2022/07/28 07:09:22;;;;;;;0.20;0.20;;;15.10;99.90;;;;;;5061472;28;20071;-85
2022/07/28 07:11:47;;;;;;;0.20;0.20;;;15.20;99.90;;;;;;5073716;28;20086;-87
2022/07/28 07:14:13;;;;;;;0.10;0.10;;;15.10;99.90;;;;;;5076281;28;20043;-88
2022/07/28 07:16:38;;;;;;;0.20;0.20;;;15.10;99.90;;;;;;5082097;28;20067;-86
2022/07/28 07:19:04;;;;;;;0.20;0.20;;;15.00;99.90;;;;;;5060768;28;20047;-86
2022/07/28 07:21:29;;;;;;;0.10;0.10;;;15.00;99.90;;;;;;5072974;28;20476;-88
2022/07/28 07:23:55;;;;;;;0.10;0.10;;;15.00;99.90;;;;;;5077483;28;20055;-89
2022/07/28 07:26:21;;;;;;;0.20;0.20;;;15.20;99.90;;;;;;5069843;28;20066;-87
2022/07/28 07:28:46;;;;;;;0.10;0.10;;;15.10;99.90;;;;;;5081895;28;20120;-88
2022/07/28 07:31:12;;;;;;;0.20;0.20;;;15.10;99.90;;;;;;5063531;28;20043;-88
2022/07/28 07:33:41;;;;;;;0.20;0.20;;;15.20;99.90;;;;;;5073331;28;20036;-84
2022/07/28 07:36:06;;;;;;;0.15;0.15;;;15.20;99.90;;;;;;5067798;28;20093;-87
2022/07/28 07:38:32;;;;;;;0.15;0.15;;;15.20;99.90;;;;;;5066536;28;20135;-87
2022/07/28 07:40:58;;;;;;;0.10;0.10;;;15.20;99.90;;;;;;5071102;28;20036;-87
2022/07/28 07:43:24;;;;;;;0.10;0.10;;;15.30;99.90;;;;;;5062837;28;20048;-89
2022/07/28 07:45:49;;;;;;;0.20;0.20;;;15.30;99.90;;;;;;5057915;28;20539;-90
2022/07/28 07:48:15;;;;;;;0.20;0.20;;;15.40;99.90;;;;;;5066265;28;20036;-87
2022/07/28 07:50:41;;;;;;;0.10;0.10;;;15.50;99.90;;;;;;5053394;28;20041;-89
2022/07/28 07:53:09;;;;;;;0.20;0.20;;;15.40;99.90;;;;;;5061968;28;20059;-89
2022/07/28 07:55:34;;;;;;;0.20;0.20;;;15.50;99.90;;;;;;5060530;28;20060;-87
2022/07/28 07:58:01;;;;;;;0.20;0.20;;;15.50;99.90;;;;;;5062074;28;20044;-88
2022/07/28 08:00:29;;;;;;;0.20;0.20;;;15.60;99.90;;;;;;5056173;28;20049;-88
2022/07/28 08:02:56;;;;;;;0.15;0.15;;;15.60;99.90;;;;;;5064769;28;20446;-87
2022/07/28 08:05:21;;;;;;;0.20;0.20;;;15.60;99.90;;;;;;5077346;28;20094;-89
2022/07/28 08:07:47;;;;;;;0.20;0.20;;;15.70;99.90;;;;;;5074614;28;20032;-88
2022/07/28 08:10:13;;;;;;;0.10;0.10;;;15.70;99.90;;;;;;5067905;28;20045;-86
2022/07/28 08:12:39;;;;;;;0.10;0.10;;;15.90;99.90;;;;;;5071613;28;20039;-87
2022/07/28 08:15:05;;;;;;;0.10;0.10;;;15.70;99.90;;;;;;5074571;28;20044;-87
2022/07/28 08:17:31;;;;;;;0.10;0.10;;;15.90;99.90;;;;;;5060651;28;20037;-87
2022/07/28 08:19:57;;;;;;;0.20;0.20;;;15.90;99.90;;;;;;5068511;28;20590;-87
2022/07/28 08:22:23;;;;;;;0.15;0.15;;;16.00;99.90;;;;;;5061267;28;20051;-87
2022/07/28 08:24:49;;;;;;;0.10;0.10;;;16.00;99.90;;;;;;5075207;28;20578;-89
2022/07/28 08:27:15;;;;;;;0.15;0.15;;;16.00;99.90;;;;;;5095065;28;20043;-89
2022/07/28 08:29:41;;;;;;;0.20;0.20;;;16.10;99.90;;;;;;5071749;28;20044;-90
2022/07/28 08:32:06;;;;;;;0.22;0.22;;;16.10;99.90;;;;;;5059805;28;20049;-88
2022/07/28 08:34:33;;;;;;;0.10;0.10;;;16.20;99.90;;;;;;5088389;28;20507;-88
2022/07/28 08:37:01;;;;;;;0.20;0.20;;;16.30;99.90;;;;;;5065674;28;20052;-90
2022/07/28 08:39:26;;;;;;;0.20;0.20;;;16.30;99.90;;;;;;5063084;28;20040;-82
2022/07/28 08:42:05;;;;;;;0.20;0.20;;;16.40;99.90;;;;;;5068635;28;20036;-83
2022/07/28 08:44:44;;;;;;;0.20;0.20;;;16.50;99.90;;;;;;5070214;28;20055;-83
2022/07/28 08:47:11;;;;;;;0.13;0.13;;;16.60;99.90;;;;;;5066936;28;20053;-83
2022/07/28 08:49:40;;;;;;;0.10;0.10;;;16.60;99.90;;;;;;5065071;28;20087;-81
2022/07/28 08:52:08;;;;;;;0.20;0.20;;;16.70;99.90;;;;;;5068832;28;20055;-82
2022/07/28 08:54:34;;;;;;;0.10;0.10;;;16.70;99.90;;;;;;5063338;28;20444;-83
2022/07/28 08:57:01;;;;;;;0.20;0.20;;;16.80;99.90;;;;;;5060911;28;20052;-89
2022/07/28 08:59:28;;;;;;;0.20;0.20;;;16.80;99.90;;;;;;5056943;28;20504;-88
2022/07/28 09:01:54;;;;;;;0.10;0.10;;;17.00;99.90;;;;;;5064693;28;20041;-90
2022/07/28 09:04:21;;;;;;;0.10;0.10;;;17.00;99.90;;;;;;5068527;28;20091;-89
2022/07/28 09:06:47;;;;;;;0.20;0.20;;;17.00;99.90;;;;;;5065378;28;20087;-88
2022/07/28 09:09:13;;;;;;;0.20;0.20;;;17.10;99.90;;;;;;5088068;28;20048;-87
2022/07/28 09:11:39;;;;;;;0.10;0.10;;;17.10;99.90;;;;;;5063801;28;20045;-87
2022/07/28 09:14:05;;;;;;;0.17;0.17;;;17.10;99.90;;;;;;5049122;28;20033;-90
2022/07/28 09:16:32;;;;;;;0.20;0.20;;;17.20;99.90;;;;;;5085741;28;20467;-88
2022/07/28 09:18:57;;;;;;;0.20;0.20;;;17.20;99.90;;;;;;5065657;28;20045;-91
2022/07/28 09:21:23;;;;;;;0.20;0.20;;;17.20;99.90;;;;;;5083593;28;20128;-88
2022/07/28 09:23:49;;;;;;;0.10;0.10;;;17.30;99.90;;;;;;5062834;28;20039;-86
2022/07/28 09:26:16;;;;;;;0.10;0.10;;;17.30;99.90;;;;;;5061044;28;20075;-88
2022/07/28 09:28:52;;;;;;;0.20;0.20;;;17.30;99.90;;;;;;5051341;28;20051;-86
2022/07/28 09:31:19;;;;;;;0.20;0.20;;;17.30;99.90;;;;;;5059910;28;20680;-87
2022/07/28 09:33:59;;;;;;;0.10;0.10;;;17.40;99.90;;;;;;5079174;28;20059;-87
2022/07/28 09:36:26;;;;;;;0.10;0.10;;;17.40;99.90;;;;;;5079935;28;20115;-86
2022/07/28 09:38:53;;;;;;;0.20;0.20;;;17.50;99.90;;;;;;5062900;28;20040;-88
2022/07/28 09:41:20;;;;;;;0.10;0.10;;;17.50;99.90;;;;;;5070993;28;20052;-87
2022/07/28 09:43:47;;;;;;;0.10;0.10;;;17.60;99.90;;;;;;5070425;28;20055;-88
2022/07/28 09:46:15;;;;;;;0.10;0.10;;;17.60;99.90;;;;;;5065322;28;20044;-90
2022/07/28 09:48:54;;;;;;;0.10;0.10;;;17.60;99.90;;;;;;5071673;28;20041;-87
2022/07/28 09:51:32;;;;;;;0.20;0.20;;;17.70;99.90;;;;;;5061686;28;20044;-86
2022/07/28 09:54:08;;;;;;;0.20;0.20;;;17.70;99.90;;;;;;5072460;28;20051;-88
2022/07/28 09:56:34;;;;;;;0.10;0.10;;;17.70;99.90;;;;;;5057968;28;20505;-87
2022/07/28 09:59:02;;;;;;;0.17;0.17;;;17.70;99.90;;;;;;5059242;28;20071;-87
2022/07/28 10:01:28;;;;;;;0.10;0.10;;;17.60;99.90;;;;;;5067633;28;20048;-84
2022/07/28 10:03:56;;;;;;;0.20;0.20;;;17.60;99.90;;;;;;5071544;28;20081;-83
2022/07/28 10:06:28;;;;;;;0.10;0.10;;;17.60;99.90;;;;;;5073008;28;20112;-87
2022/07/28 10:08:56;;;;;;;0.20;0.20;;;17.60;99.90;;;;;;5061104;28;20056;-89
2022/07/28 10:11:26;;;;;;;0.10;0.10;;;17.60;99.90;;;;;;5055255;28;20045;-88
2022/07/28 10:14:01;;;;;;;0.10;0.10;;;17.70;99.90;;;;;;5053406;28;20037;-90
2022/07/28 10:16:40;;;;;;;0.20;0.20;;;17.60;99.90;;;;;;5060555;28;20044;-88
2022/07/28 10:19:06;;;;;;;0.20;0.20;;;17.70;99.90;;;;;;5076397;28;20044;-86
2022/07/28 10:21:38;;;;;;;0.20;0.20;;;17.70;99.90;;;;;;5072094;28;20101;-86
2022/07/28 10:24:19;;;;;;;0.20;0.20;;;17.80;99.90;;;;;;5058753;28;20048;-88
2022/07/28 10:26:55;;;;;;;0.20;0.20;;;17.90;99.90;;;;;;5073982;28;20423;-86
2022/07/28 10:29:22;;;;;;;0.20;0.20;;;18.10;99.90;;;;;;5089263;28;20048;-81
2022/07/28 10:31:53;;;;;;;0.20;0.20;;;18.20;99.90;;;;;;5066434;28;20060;-89
2022/07/28 10:34:30;;;;;;;0.20;0.20;;;18.30;99.90;;;;;;5076706;28;20510;-89
2022/07/28 10:37:01;;;;;;;0.10;0.10;;;18.30;99.90;;;;;;5077612;28;20040;-87
2022/07/28 10:39:31;;;;;;;0.10;0.10;;;18.40;99.90;;;;;;5062855;28;20400;-88
2022/07/28 10:41:57;;;;;;;0.20;0.20;;;18.40;99.90;;;;;;5075340;28;20417;-88
2022/07/28 10:44:23;;;;;;;0.20;0.20;;;18.60;99.90;;;;;;5063775;28;20102;-88
2022/07/28 10:46:50;;;;;;;0.17;0.17;;;18.60;99.90;;;;;;5055586;28;20099;-88
2022/07/28 10:49:17;;;;;;;0.10;0.10;;;18.80;99.90;;;;;;5061056;28;20048;-87
2022/07/28 10:51:53;;;;;;;0.20;0.20;;;18.90;99.90;;;;;;5051110;28;20049;-87
2022/07/28 10:54:24;;;;;;;0.10;0.10;;;19.00;99.90;;;;;;5051194;28;20106;-87
2022/07/28 10:56:56;;;;;;;0.20;0.20;;;19.00;99.90;;;;;;5054994;28;20403;-86
2022/07/28 11:00:00;;;;;;;0.20;0.20;;;19.00;99.90;;;;;;5065834;28;20057;-85
2022/07/28 11:02:49;;;;;;;0.20;0.20;;;19.00;99.90;;;;;;5049472;28;20079;-86
2022/07/28 11:05:40;;;;;;;0.10;0.10;;;19.00;99.90;;;;;;5066161;28;20059;-88
2022/07/28 11:08:07;;;;;;;0.20;0.20;;;19.00;99.90;;;;;;5070860;28;20047;-84
2022/07/28 11:10:45;;;;;;;0.20;0.20;;;19.00;99.90;;;;;;5068617;28;20048;-85
2022/07/28 11:13:29;;;;;;;0.20;0.20;;;19.00;99.90;;;;;;5066839;28;20052;-87
2022/07/28 11:15:56;;;;;;;0.10;0.10;;;19.00;99.90;;;;;;5062759;28;20045;-87
2022/07/28 11:18:24;;;;;;;0.10;0.10;;;19.00;99.90;;;;;;5072491;28;20080;-87
2022/07/28 11:20:59;;;;;;;0.15;0.15;;;19.00;99.90;;;;;;5073249;28;20121;-87
2022/07/28 11:23:42;;;;;;;0.10;0.10;;;18.90;99.90;;;;;;5070231;28;20102;-85
2022/07/28 11:26:35;;;;;;;0.10;0.10;;;18.90;99.90;;;;;;5059198;28;20055;-86
2022/07/28 11:29:07;;;;;;;0.10;0.10;;;19.00;99.90;;;;;;5070198;28;20120;-88
2022/07/28 11:31:45;;;;;;;0.20;0.20;;;18.90;99.90;;;;;;5066856;28;20045;-87
2022/07/28 11:34:15;;;;;;;0.10;0.10;;;18.90;99.90;;;;;;5084426;28;20100;-85
2022/07/28 11:37:01;;;;;;;0.20;0.20;;;18.90;99.90;;;;;;5068706;28;20163;-86
2022/07/28 11:39:29;;;;;;;0.13;0.13;;;18.80;99.90;;;;;;5056210;28;20476;-86
2022/07/28 11:41:55;;;;;;;0.20;0.20;;;18.80;99.90;;;;;;5056736;28;20065;-86
2022/07/28 11:44:31;;;;;;;0.10;0.10;;;18.80;99.90;;;;;;5054789;28;20040;-89
2022/07/28 11:47:34;;;;;;;0.20;0.20;;;18.90;99.90;;;;;;5067300;28;20056;-86
2022/07/28 11:50:16;;;;;;;0.20;0.20;;;18.70;99.90;;;;;;5064258;28;20938;-86
2022/07/28 11:52:53;;;;;;;0.20;0.20;;;18.70;99.90;;;;;;5054246;28;20057;-88
2022/07/28 11:55:21;;;;;;;0.20;0.20;;;18.70;99.90;;;;;;5048941;28;20139;-87
2022/07/28 11:57:47;;;;;;;0.17;0.17;;;18.70;99.90;;;;;;5049949;28;20064;-85
2022/07/28 12:00:20;;;;;;;0.20;0.20;;;18.70;99.90;;;;;;5056180;28;20044;-87
2022/07/28 12:02:48;;;;;;;0.20;0.20;;;18.70;99.90;;;;;;5050112;28;20132;-89
2022/07/28 12:05:20;;;;;;;0.10;0.10;;;18.70;99.90;;;;;;5050547;28;20045;-87
2022/07/28 12:07:57;;;;;;;0.10;0.10;;;18.70;99.90;;;;;;5062765;28;20037;-88
2022/07/28 12:10:27;;;;;;;0.10;0.10;;;18.70;99.90;;;;;;5064488;28;20075;-86
2022/07/28 12:13:01;;;;;;;0.10;0.10;;;18.70;99.90;;;;;;5049311;28;20084;-86
2022/07/28 12:15:27;;;;;;;0.10;0.10;;;18.80;99.90;;;;;;5060965;28;20028;-87
2022/07/28 12:17:59;;;;;;;0.10;0.10;;;18.90;99.90;;;;;;5070530;28;20395;-86
2022/07/28 12:20:30;;;;;;;0.10;0.10;;;18.90;99.90;;;;;;5053923;28;20411;-85
2022/07/28 12:23:05;;;;;;;0.20;0.20;;;19.00;99.90;;;;;;5066483;28;20127;-88
2022/07/28 12:25:40;;;;;;;0.20;0.20;;;19.10;99.90;;;;;;5070179;28;20431;-87
2022/07/28 12:28:21;;;;;;;0.10;0.10;;;19.10;99.90;;;;;;5060220;28;20400;-87
2022/07/28 12:30:50;;;;;;;0.20;0.20;;;19.20;99.90;;;;;;5050409;28;20055;-85
2022/07/28 12:33:22;;;;;;;0.10;0.10;;;19.30;99.90;;;;;;5052050;28;20045;-87
2022/07/28 12:35:49;;;;;;;;;;;19.40;99.90;;;;;;5060771;28;20045;-87
2022/07/28 12:38:15;;;;;;;0.10;0.10;;;19.40;99.90;;;;;;5082304;28;19977;-87
2022/07/28 12:40:42;;;;;;;0.20;0.20;;;19.50;99.90;;;;;;5069939;28;20033;-86
2022/07/28 12:43:08;;;;;;;0.20;0.20;;;19.60;99.90;;;;;;5071122;28;20399;-87
2022/07/28 12:45:48;;;;;;;0.20;0.20;;;19.70;99.90;;;;;;5063090;28;20128;-88
2022/07/28 12:48:18;;;;;;;0.25;0.25;;;19.80;99.90;;;;;;5080093;28;20033;-89
2022/07/28 12:50:45;;;;;;;0.20;0.20;;;19.90;99.90;;;;;;5070803;28;20053;-89
2022/07/28 12:53:12;;;;;;;0.20;0.20;;;20.00;99.90;;;;;;5076114;28;20036;-85
2022/07/28 12:55:42;;;;;;;0.20;0.20;;;20.30;99.90;;;;;;5090383;28;20040;-87
2022/07/28 12:58:25;;;;;;;0.10;0.10;;;20.40;99.60;;;;;;5077239;28;20049;-88
2022/07/28 13:00:51;;;;;;;0.10;0.10;;;20.60;99.00;;;;;;5059644;28;20048;-87